createdAt,value
2023-01-27T00:02:09.680Z,13.60
2023-01-27T00:07:11.895Z,15.40
2023-01-27T00:12:43.877Z,14.35
2023-01-27T00:17:46.122Z,14.32
2023-01-27T00:23:08.195Z,12.75
2023-01-27T00:28:10.437Z,14.88
2023-01-27T00:33:29.098Z,12.60
2023-01-27T00:38:34.091Z,12.77
2023-01-27T00:43:36.338Z,15.60
2023-01-27T00:48:38.971Z,13.68
2023-01-27T00:53:41.872Z,13.82
2023-01-27T00:58:44.218Z,14.73
2023-01-27T01:03:46.932Z,14.57
2023-01-27T01:08:51.486Z,14.10
2023-01-27T01:13:56.008Z,15.90
2023-01-27T01:18:58.681Z,15.93
2023-01-27T01:24:01.309Z,14.90
2023-01-27T01:29:03.616Z,15.02
2023-01-27T01:34:05.961Z,14.70
2023-01-27T01:39:08.159Z,12.80
2023-01-27T01:44:29.458Z,15.73
2023-01-27T01:49:39.238Z,14.02
2023-01-27T01:54:46.106Z,19.77
2023-01-27T01:59:54.232Z,18.63
2023-01-27T02:05:02.249Z,17.20
2023-01-27T02:10:05.559Z,15.45
2023-01-27T02:15:12.541Z,18.45
2023-01-27T02:30:35.781Z,15.82
2023-01-27T02:35:48.874Z,17.20
2023-01-27T02:40:55.554Z,17.35
2023-01-27T02:45:58.062Z,15.55
2023-01-27T02:51:01.378Z,19.55
2023-01-27T02:56:07.244Z,17.70
2023-01-27T03:01:09.596Z,17.75
2023-01-27T03:06:11.939Z,17.13
2023-01-27T03:11:14.251Z,18.67
2023-01-27T03:16:36.355Z,15.75
2023-01-27T03:21:38.539Z,16.80
2023-01-27T03:26:40.867Z,17.25
2023-01-27T03:31:45.375Z,17.85
2023-01-27T03:37:07.646Z,21.05
2023-01-27T03:42:30.699Z,22.42
2023-01-27T03:47:33.331Z,16.60
2023-01-27T03:52:35.577Z,18.55
2023-01-27T03:57:38.398Z,21.35
2023-01-27T04:03:00.508Z,18.08
2023-01-27T04:08:04.987Z,19.90
2023-01-27T04:13:07.232Z,24.10
2023-01-27T04:18:09.447Z,16.65
2023-01-27T04:23:11.656Z,18.70
2023-01-27T04:28:13.887Z,19.00
2023-01-27T04:33:16.619Z,18.98
2023-01-27T04:38:18.818Z,18.73
2023-01-27T04:43:21.015Z,21.92
2023-01-27T04:48:23.266Z,15.88
2023-01-27T04:53:25.533Z,22.38
2023-01-27T04:58:27.692Z,22.17
2023-01-27T05:03:30.203Z,20.42
2023-01-27T05:08:32.461Z,19.52
2023-01-27T05:13:35.413Z,17.67
2023-01-27T05:18:38.531Z,21.23
2023-01-27T05:23:41.293Z,23.02
2023-01-27T05:28:45.452Z,21.90
2023-01-27T05:33:50.134Z,18.52
2023-01-27T05:38:53.810Z,27.45
2023-01-27T05:43:56.653Z,21.60
2023-01-27T05:49:01.764Z,25.48
2023-01-27T05:54:04.460Z,22.98
2023-01-27T05:59:06.851Z,33.13
2023-01-27T06:04:10.199Z,27.70
2023-01-27T06:09:12.551Z,21.83
2023-01-27T06:14:15.286Z,20.83
2023-01-27T06:19:17.507Z,25.02
2023-01-27T06:24:19.755Z,25.38
2023-01-27T06:29:22.412Z,26.20
2023-01-27T06:34:24.709Z,25.83
2023-01-27T06:39:26.994Z,25.25
2023-01-27T06:44:29.420Z,22.55
2023-01-27T06:49:31.593Z,23.10
2023-01-27T06:54:33.990Z,22.58
2023-01-27T06:59:36.443Z,22.73
2023-01-27T07:04:38.734Z,24.20
2023-01-27T07:09:51.977Z,24.60
2023-01-27T07:14:55.131Z,24.02
2023-01-27T07:19:57.631Z,25.48
2023-01-27T07:24:59.915Z,29.83
2023-01-27T07:30:02.197Z,32.22
2023-01-27T07:35:05.839Z,27.02
2023-01-27T07:40:09.772Z,24.80
2023-01-27T07:45:12.011Z,28.48
2023-01-27T07:50:14.542Z,21.40
2023-01-27T07:55:17.052Z,23.38
2023-01-27T08:00:21.857Z,31.67
2023-01-27T08:05:25.302Z,32.22
2023-01-27T08:10:27.640Z,26.63
2023-01-27T08:15:29.985Z,27.55
2023-01-27T08:20:32.730Z,28.50
2023-01-27T08:25:34.964Z,26.58
2023-01-27T08:30:37.204Z,31.77
2023-01-27T08:35:44.612Z,29.90
2023-01-27T08:40:48.223Z,25.58
2023-01-27T08:45:52.798Z,30.83
2023-01-27T08:50:56.203Z,29.98
2023-01-27T08:56:02.744Z,27.33
2023-01-27T09:01:07.217Z,31.25
2023-01-27T09:06:11.320Z,26.50
2023-01-27T09:11:16.902Z,31.05
2023-01-27T09:16:19.130Z,31.15
2023-01-27T09:21:22.090Z,30.45
2023-01-27T09:26:24.445Z,22.60
2023-01-27T09:31:26.704Z,27.08
2023-01-27T09:36:29.205Z,28.27
2023-01-27T10:18:48.247Z,32.03
2023-01-27T10:29:09.687Z,32.05
2023-01-27T10:34:28.347Z,30.50
2023-01-27T10:50:01.519Z,28.92
2023-01-27T11:01:20.790Z,26.60
2023-01-27T11:06:08.584Z,28.40
2023-01-27T11:11:30.995Z,28.65
2023-01-27T11:16:37.316Z,29.30
2023-01-27T11:21:40.355Z,26.17
2023-01-27T11:26:52.683Z,26.42
2023-01-27T11:37:22.104Z,27.38
2023-01-27T11:42:30.039Z,25.38
2023-01-27T11:47:38.986Z,26.73
2023-01-27T11:52:41.200Z,26.42
2023-01-27T11:57:49.962Z,23.90
2023-01-27T12:03:03.595Z,23.60
2023-01-27T12:08:06.241Z,24.35
2023-01-27T12:13:19.055Z,21.67
2023-01-27T12:18:23.654Z,24.02
2023-01-27T12:23:47.231Z,21.42
2023-01-27T12:28:53.255Z,28.50
2023-01-27T12:34:07.321Z,25.80
2023-01-27T12:44:44.608Z,23.92
2023-01-27T12:49:46.831Z,23.88
2023-01-27T12:54:51.392Z,20.75
2023-01-27T12:59:58.713Z,22.48
2023-01-27T13:05:05.156Z,25.38
2023-01-27T13:15:31.287Z,25.83
2023-01-27T13:20:45.648Z,26.88
2023-01-27T13:31:09.174Z,19.88
2023-01-27T13:36:37.776Z,16.98
2023-01-27T13:41:47.735Z,20.60
2023-01-27T13:46:50.972Z,19.80
2023-01-27T13:51:53.181Z,19.55
2023-01-27T13:57:26.127Z,21.58
2023-01-27T14:13:30.882Z,22.90
2023-01-27T14:18:37.977Z,22.58
2023-01-27T14:29:15.164Z,17.20
2023-01-27T14:45:11.547Z,19.08
2023-01-27T14:50:22.759Z,17.38
2023-01-27T15:06:21.618Z,14.50
2023-01-27T15:22:31.244Z,15.98
2023-01-27T15:27:34.631Z,19.00
2023-01-27T15:32:37.908Z,14.15
2023-01-27T15:43:15.516Z,19.63
2023-01-27T15:48:23.717Z,13.02
2023-01-27T15:53:33.406Z,13.30
2023-01-27T16:03:53.092Z,13.98
2023-01-27T16:09:00.752Z,14.68
2023-01-27T16:19:38.940Z,17.08
2023-01-27T16:24:47.755Z,23.23
2023-01-27T16:35:27.540Z,14.20
2023-01-27T16:40:32.630Z,14.30
2023-01-27T16:45:45.910Z,12.65
2023-01-27T16:50:48.843Z,10.77
2023-01-27T16:56:02.978Z,13.95
2023-01-27T17:01:05.781Z,11.68
2023-01-27T17:06:14.484Z,14.23
2023-01-27T17:21:50.043Z,11.27
2023-01-27T17:27:29.835Z,11.30
2023-01-27T17:32:37.112Z,12.13
2023-01-27T17:37:43.636Z,9.77
2023-01-27T17:42:47.416Z,10.20
2023-01-27T17:47:50.019Z,10.93
2023-01-27T17:52:54.192Z,14.13
2023-01-27T17:58:04.424Z,10.77
2023-01-27T18:03:15.901Z,12.32
2023-01-27T18:08:19.536Z,11.93
2023-01-27T18:18:39.772Z,23.60
2023-01-27T18:23:48.201Z,10.85
2023-01-27T18:29:02.318Z,11.82
2023-01-27T18:44:45.639Z,9.80
2023-01-27T19:00:37.833Z,11.10
2023-01-27T19:05:40.595Z,20.75
2023-01-27T19:10:43.710Z,11.23
2023-01-27T19:15:50.192Z,10.27
2023-01-27T19:20:52.676Z,10.20
2023-01-27T19:25:57.600Z,10.80
2023-01-27T19:31:00.464Z,8.63
2023-01-27T19:36:31.466Z,9.02
2023-01-27T19:41:34.335Z,8.77
2023-01-27T19:46:38.351Z,9.63
2023-01-27T19:51:40.571Z,9.05
2023-01-27T19:56:43.488Z,9.30
2023-01-27T20:01:45.731Z,10.57
2023-01-27T20:06:47.943Z,36.08
2023-01-27T20:11:50.202Z,13.57
2023-01-27T20:16:52.666Z,12.35
2023-01-27T20:21:58.318Z,9.18
2023-01-27T20:27:00.575Z,9.60
2023-01-27T20:32:03.073Z,9.52
2023-01-27T20:37:05.304Z,9.50
2023-01-27T20:42:07.646Z,9.50
2023-01-27T20:47:11.365Z,8.85
2023-01-27T20:52:13.590Z,8.55
2023-01-27T20:57:17.304Z,7.72
2023-01-27T21:02:19.514Z,7.80
2023-01-27T21:07:22.898Z,7.80
2023-01-27T21:12:27.322Z,7.93
2023-01-27T21:17:29.548Z,8.50
2023-01-27T21:22:31.823Z,8.27
2023-01-27T21:27:34.051Z,8.13
2023-01-27T21:32:36.296Z,8.50
2023-01-27T21:37:40.327Z,8.50
2023-01-27T21:43:02.469Z,8.23
2023-01-27T21:48:04.906Z,8.60
2023-01-27T21:53:10.062Z,7.90
2023-01-27T21:58:12.323Z,8.18
2023-01-27T22:03:14.608Z,8.10
2023-01-27T22:08:16.858Z,7.93
2023-01-27T22:13:19.331Z,8.23
2023-01-27T22:18:21.517Z,8.13
2023-01-27T22:23:24.682Z,7.93
2023-01-27T22:28:27.547Z,7.63
2023-01-27T22:33:29.822Z,8.27
2023-01-27T22:38:32.046Z,8.45
2023-01-27T22:43:34.308Z,8.25
2023-01-27T22:48:36.505Z,8.88
2023-01-27T22:53:38.737Z,8.20
2023-01-27T22:58:40.925Z,7.82
2023-01-27T23:03:43.087Z,8.02
2023-01-27T23:08:45.344Z,8.18
2023-01-27T23:13:47.760Z,8.05
2023-01-27T23:18:50.952Z,8.02
2023-01-27T23:23:53.893Z,7.72
2023-01-27T23:28:56.159Z,10.07
2023-01-27T23:33:58.354Z,7.68
2023-01-27T23:39:00.552Z,7.68
2023-01-27T23:44:02.899Z,7.18
2023-01-27T23:49:05.122Z,7.10
2023-01-27T23:54:07.385Z,7.05
2023-01-27T23:59:11.921Z,7.22
